64.5°F
Current conditions from King Hill
Updated every 5 minutes
 
  Thursday July 31, 2014

Station Historical Data
Daily Summary for April 15, 2012 Units:  Metric    English   Both
« Previous Day
Next Day »
Daily Weekly Monthly Yearly Custom
  High: Low: Average:
Temperature: 21.6 °C 11.5 °C 15.9 °C
Dew Point: 12 °C -2.2 °C 6.2 °C
Humidity: 77% 38% 53%
Wind Speed: 17.7km/h 0km/h 6.4km/h
Wind Gust: 33.8km/h - -
Wind- - SW
Pressure: 1012.1 hPa 1009.4 hPa -
Precipitation: 0 mm    
Historical Graphs
 
 
Tabular Data for April 15, 2012
Time Temperature Dew Point Pressure Wind Wind Speed Wind Gust Humidity Daily Rainfall
00:00 11.7 °C -2.1 °C 1012.1 hPa Calm   6.4 km/h 38% 0 mm
00:05 11.8 °C -1.7 °C 1012.1 hPa Calm   1.6 km/h 39% 0 mm
00:10 11.9 °C -1.9 °C 1011.7 hPa Calm   8 km/h 38% 0 mm
00:15 11.9 °C -1.3 °C 1011.7 hPa SSW 3.2 km/h 8 km/h 40% 0 mm
00:20 11.8 °C -1.1 °C 1011.7 hPa SSW 3.2 km/h 8 km/h 41% 0 mm
00:25 11.7 °C -1.4 °C 1012.1 hPa Calm   6.4 km/h 40% 0 mm
00:30 11.7 °C -2.1 °C 1012.1 hPa Calm   4.8 km/h 38% 0 mm
00:40 11.7 °C -1.8 °C 1011.7 hPa Calm   1.6 km/h 39% 0 mm
00:45 11.7 °C -1.8 °C 1011.7 hPa Calm   4.8 km/h 39% 0 mm
00:55 11.7 °C -2.2 °C 1011.7 hPa SSW 3.2 km/h 9.7 km/h 38% 0 mm
01:00 11.6 °C -1.9 °C 1011.7 hPa SSW 1.6 km/h 9.7 km/h 39% 0 mm
01:05 11.6 °C -1.9 °C 1011.7 hPa SSW 1.6 km/h 8 km/h 39% 0 mm
01:10 11.5 °C -2 °C 1011.4 hPa Calm   8 km/h 39% 0 mm
01:15 11.5 °C -1.6 °C 1011.4 hPa Calm   6.4 km/h 40% 0 mm
01:20 11.6 °C -1.6 °C 1011.7 hPa SSW 1.6 km/h 8 km/h 40% 0 mm
01:25 11.6 °C -1.2 °C 1011.4 hPa SSW 3.2 km/h 8 km/h 41% 0 mm
01:30 11.8 °C -1.1 °C 1011.4 hPa SSW 3.2 km/h 11.3 km/h 41% 0 mm
01:40 11.9 °C -0.9 °C 1011.4 hPa SSW 1.6 km/h 8 km/h 41% 0 mm
01:50 12 °C -0.8 °C 1011.4 hPa SSW 1.6 km/h 6.4 km/h 41% 0 mm
01:55 11.8 °C -1 °C 1011.1 hPa Calm   6.4 km/h 41% 0 mm
02:00 11.8 °C -0.7 °C 1011.1 hPa Calm   6.4 km/h 42% 0 mm
02:05 11.8 °C -0.7 °C 1011.1 hPa Calm   4.8 km/h 42% 0 mm
02:10 11.8 °C -0.7 °C 1011.1 hPa Calm   4.8 km/h 42% 0 mm
02:15 11.8 °C -0.3 °C 1011.1 hPa Calm   6.4 km/h 43% 0 mm
02:20 11.9 °C -0.2 °C 1011.1 hPa Calm   6.4 km/h 43% 0 mm
02:25 12.1 °C -0.2 °C 1010.7 hPa Calm   6.4 km/h 43% 0 mm
02:35 12.3 °C 0.1 °C 1010.7 hPa SW 1.6 km/h 9.7 km/h 43% 0 mm
02:40 12.4 °C -0.2 °C 1010.7 hPa Calm   9.7 km/h 42% 0 mm
02:45 12.3 °C -0.2 °C 1010.7 hPa Calm   8 km/h 42% 0 mm
02:50 12.3 °C -0.3 °C 1010.7 hPa Calm   8 km/h 42% 0 mm
03:00 12.2 °C -0.1 °C 1010.7 hPa Calm   6.4 km/h 43% 0 mm
03:05 12.2 °C 0 °C 1010.7 hPa SW 1.6 km/h 6.4 km/h 43% 0 mm
03:10 12.4 °C 0.2 °C 1011.1 hPa SW 1.6 km/h 6.4 km/h 43% 0 mm
03:15 12.5 °C -0.1 °C 1010.7 hPa Calm   4.8 km/h 42% 0 mm
03:20 12.7 °C 0.1 °C 1010.7 hPa Calm   6.4 km/h 42% 0 mm
03:25 12.8 °C -0.1 °C 1010.7 hPa SW 1.6 km/h 8 km/h 41% 0 mm
03:30 12.9 °C 0 °C 1010.7 hPa Calm   8 km/h 41% 0 mm
03:35 13 °C -0.3 °C 1010.7 hPa Calm   6.4 km/h 40% 0 mm
03:45 12.9 °C -0.1 °C 1010.7 hPa Calm   8 km/h 41% 0 mm
03:55 13.1 °C 0.1 °C 1010.7 hPa SW 3.2 km/h 9.7 km/h 41% 0 mm
04:00 13.2 °C -0.1 °C 1010.7 hPa SW 4.8 km/h 11.3 km/h 40% 0 mm
04:05 13.3 °C 0.3 °C 1010.7 hPa SW 1.6 km/h 11.3 km/h 41% 0 mm
04:10 13.2 °C -0.1 °C 1010.7 hPa Calm   8 km/h 40% 0 mm
04:15 13.2 °C 0.3 °C 1010.7 hPa Calm   8 km/h 41% 0 mm
04:20 13.2 °C -0.1 °C 1010.7 hPa SW 1.6 km/h 8 km/h 40% 0 mm
04:25 13.2 °C 0.3 °C 1010.7 hPa WSW 1.6 km/h 11.3 km/h 41% 0 mm
04:30 13.2 °C -0.1 °C 1010.7 hPa WSW 1.6 km/h 11.3 km/h 40% 0 mm
04:40 13.1 °C 0.2 °C 1010.7 hPa SSW 6.4 km/h 12.9 km/h 41% 0 mm
04:45 13 °C 0.4 °C 1010.7 hPa SSW 1.6 km/h 12.9 km/h 42% 0 mm
04:50 12.9 °C 0.3 °C 1010.7 hPa SW 1.6 km/h 11.3 km/h 42% 0 mm
05:00 12.8 °C 0.5 °C 1010.7 hPa Calm   11.3 km/h 43% 0 mm
05:05 12.6 °C 0.3 °C 1010.7 hPa SSW 3.2 km/h 11.3 km/h 43% 0 mm
05:10 12.6 °C 0.6 °C 1010.7 hPa SSW 1.6 km/h 9.7 km/h 44% 0 mm
05:15 12.5 °C 0.6 °C 1010.7 hPa South 3.2 km/h 9.7 km/h 44% 0 mm
05:20 12.4 °C 0.5 °C 1010.7 hPa SSW 4.8 km/h 11.3 km/h 44% 0 mm
05:25 12.4 °C 0.8 °C 1010.7 hPa SSW 4.8 km/h 11.3 km/h 45% 0 mm
05:30 12.4 °C 0.8 °C 1010.7 hPa SSW 1.6 km/h 11.3 km/h 45% 0 mm
05:35 12.3 °C 0.7 °C 1010.7 hPa Calm   12.9 km/h 45% 0 mm
05:40 12.3 °C 1 °C 1011.1 hPa Calm   12.9 km/h 46% 0 mm
05:50 12.2 °C 0.9 °C 1011.1 hPa Calm   9.7 km/h 46% 0 mm
05:55 12.2 °C 1.2 °C 1011.1 hPa Calm   6.4 km/h 47% 0 mm
06:05 12 °C 1.3 °C 1011.1 hPa Calm   6.4 km/h 48% 0 mm
06:10 11.9 °C 1.6 °C 1011.4 hPa SSW 1.6 km/h 11.3 km/h 49% 0 mm
06:15 12 °C 1.6 °C 1011.4 hPa Calm   11.3 km/h 49% 0 mm
06:20 12 °C 1.6 °C 1011.4 hPa Calm   4.8 km/h 49% 0 mm
06:25 12 °C 1.6 °C 1011.4 hPa Calm   4.8 km/h 49% 0 mm
06:30 12 °C 1.6 °C 1011.4 hPa SSW 1.6 km/h 8 km/h 49% 0 mm
06:35 12 °C 1.6 °C 1011.4 hPa SSW 1.6 km/h 12.9 km/h 49% 0 mm
06:40 12.1 °C 1.7 °C 1011.4 hPa SSW 3.2 km/h 12.9 km/h 49% 0 mm
06:45 12.1 °C 1.9 °C 1011.4 hPa SSW 1.6 km/h 8 km/h 50% 0 mm
06:50 12.1 °C 1.7 °C 1011.4 hPa SSW 4.8 km/h 9.7 km/h 49% 0 mm
06:55 12.1 °C 1.9 °C 1011.4 hPa Calm   9.7 km/h 50% 0 mm
07:00 12.1 °C 2 °C 1011.4 hPa SSW 1.6 km/h 9.7 km/h 50% 0 mm
07:05 12.1 °C 2 °C 1011.4 hPa Calm   9.7 km/h 50% 0 mm
07:10 12.2 °C 2.1 °C 1011.4 hPa SSW 3.2 km/h 9.7 km/h 50% 0 mm
07:15 12.2 °C 2.3 °C 1011.4 hPa SSW 1.6 km/h 11.3 km/h 51% 0 mm
07:20 12.2 °C 2.3 °C 1011.4 hPa SSW 1.6 km/h 11.3 km/h 51% 0 mm
07:25 12.2 °C 2.6 °C 1011.4 hPa SSW 1.6 km/h 6.4 km/h 52% 0 mm
07:30 12.2 °C 2.7 °C 1011.4 hPa Calm   9.7 km/h 52% 0 mm
07:35 12.4 °C 2.8 °C 1011.4 hPa SW 1.6 km/h 9.7 km/h 52% 0 mm
07:40 12.5 °C 2.9 °C 1011.4 hPa SW 3.2 km/h 11.3 km/h 52% 0 mm
07:45 12.6 °C 3 °C 1011.4 hPa SW 4.8 km/h 12.9 km/h 52% 0 mm
07:55 12.8 °C 3.2 °C 1011.7 hPa SSW 6.4 km/h 12.9 km/h 52% 0 mm
08:05 13.1 °C 3.2 °C 1011.7 hPa SW 6.4 km/h 14.5 km/h 51% 0 mm
08:10 13.2 °C 3.3 °C 1011.7 hPa SSW 8 km/h 16.1 km/h 51% 0 mm
08:15 13.2 °C 3.6 °C 1011.7 hPa SSW 8 km/h 16.1 km/h 52% 0 mm
08:20 13.3 °C 3.6 °C 1011.7 hPa SW 8 km/h 16.1 km/h 52% 0 mm
08:25 13.3 °C 3.9 °C 1011.7 hPa SW 4.8 km/h 16.1 km/h 53% 0 mm
08:30 13.4 °C 3.7 °C 1011.7 hPa SSW 4.8 km/h 14.5 km/h 52% 0 mm
08:35 13.4 °C 4 °C 1011.7 hPa SSW 3.2 km/h 14.5 km/h 53% 0 mm
08:40 13.5 °C 4.1 °C 1011.7 hPa SSW 3.2 km/h 16.1 km/h 53% 0 mm
08:45 13.6 °C 4.4 °C 1011.7 hPa SSW 4.8 km/h 17.7 km/h 54% 0 mm
08:50 13.6 °C 4.7 °C 1011.7 hPa SSW 8 km/h 17.7 km/h 55% 0 mm
09:00 13.8 °C 4.6 °C 1011.7 hPa SSW 6.4 km/h 20.9 km/h 54% 0 mm
09:05 13.8 °C 4.9 °C 1012.1 hPa SSW 9.7 km/h 19.3 km/h 55% 0 mm
09:10 13.8 °C 4.9 °C 1012.1 hPa SSW 6.4 km/h 19.3 km/h 55% 0 mm
09:15 13.9 °C 5 °C 1011.7 hPa SSW 11.3 km/h 19.3 km/h 55% 0 mm
09:20 14.1 °C 5.4 °C 1011.7 hPa SW 6.4 km/h 19.3 km/h 56% 0 mm
09:25 14.3 °C 5.6 °C 1011.7 hPa SSW 8 km/h 17.7 km/h 56% 0 mm
09:35 14.8 °C 6.1 °C 1012.1 hPa SSW 4.8 km/h 14.5 km/h 56% 0 mm
09:40 15 °C 6.1 °C 1012.1 hPa SSW 8 km/h 16.1 km/h 55% 0 mm
09:45 15.2 °C 6.2 °C 1012.1 hPa SW 4.8 km/h 17.7 km/h 55% 0 mm
09:50 15.3 °C 6.3 °C 1012.1 hPa South 3.2 km/h 17.7 km/h 55% 0 mm
10:00 16.4 °C 6.8 °C 1012.1 hPa South 8 km/h 16.1 km/h 53% 0 mm
10:05 16.7 °C 6.8 °C 1011.7 hPa SSW 11.3 km/h 17.7 km/h 52% 0 mm
10:10 16.8 °C 7.2 °C 1011.7 hPa South 4.8 km/h 17.7 km/h 53% 0 mm
10:15 17.3 °C 7.3 °C 1011.4 hPa SSW 8 km/h 17.7 km/h 52% 0 mm
10:20 17.3 °C 7.1 °C 1011.4 hPa SSW 9.7 km/h 17.7 km/h 51% 0 mm
10:25 17.4 °C 7.7 °C 1011.1 hPa SSW 6.4 km/h 17.7 km/h 53% 0 mm
10:35 17.8 °C 7.8 °C 1011.1 hPa SW 6.4 km/h 19.3 km/h 52% 0 mm
10:40 17.8 °C 7.5 °C 1011.1 hPa SSW 11.3 km/h 19.3 km/h 51% 0 mm
10:45 17.8 °C 7.8 °C 1011.1 hPa SW 8 km/h 22.5 km/h 52% 0 mm
10:55 18.1 °C 7.8 °C 1010.7 hPa WSW 9.7 km/h 24.1 km/h 51% 0 mm
11:00 18 °C 7.7 °C 1010.7 hPa SW 12.9 km/h 27.4 km/h 51% 0 mm
11:05 18.1 °C 8.1 °C 1010.7 hPa SW 9.7 km/h 27.4 km/h 52% 0 mm
11:10 18.2 °C 8.2 °C 1010.4 hPa WSW 6.4 km/h 20.9 km/h 52% 0 mm
11:15 18.3 °C 8.3 °C 1010.4 hPa SW 9.7 km/h 20.9 km/h 52% 0 mm
11:20 18.8 °C 8.7 °C 1010.7 hPa SW 11.3 km/h 20.9 km/h 52% 0 mm
11:25 18.8 °C 8.2 °C 1010.7 hPa SSW 9.7 km/h 20.9 km/h 50% 0 mm
11:35 18.8 °C 8.5 °C 1010.4 hPa WSW 3.2 km/h 17.7 km/h 51% 0 mm
11:40 19.2 °C 8.2 °C 1010.7 hPa SSW 14.5 km/h 25.7 km/h 49% 0 mm
11:50 19.2 °C 8.2 °C 1010.4 hPa WSW 9.7 km/h 24.1 km/h 49% 0 mm
11:55 19.6 °C 8.8 °C 1010.4 hPa SSW 9.7 km/h 24.1 km/h 50% 0 mm
12:00 19.1 °C 7.8 °C 1010.4 hPa SSW 14.5 km/h 24.1 km/h 48% 0 mm
12:05 19 °C 8.3 °C 1010.4 hPa SSW 11.3 km/h 27.4 km/h 50% 0 mm
12:10 19.3 °C 8.7 °C 1010 hPa SSW 14.5 km/h 27.4 km/h 50% 0 mm
12:15 19.1 °C 8.4 °C 1010 hPa SW 17.7 km/h 29 km/h 50% 0 mm
12:20 19.3 °C 8.9 °C 1010 hPa SSW 12.9 km/h 29 km/h 51% 0 mm
12:25 19.2 °C 8.8 °C 1010 hPa SSW 14.5 km/h 33.8 km/h 51% 0 mm
12:30 19.3 °C 9.2 °C 1010 hPa SSW 16.1 km/h 33.8 km/h 52% 0 mm
12:35 19.3 °C 9.2 °C 1010 hPa SSW 12.9 km/h 32.2 km/h 52% 0 mm
12:40 19.5 °C 9.1 °C 1010 hPa South 14.5 km/h 32.2 km/h 51% 0 mm
12:50 19.4 °C 9.3 °C 1009.7 hPa SSW 11.3 km/h 30.6 km/h 52% 0 mm
12:55 19.2 °C 8.8 °C 1010 hPa SSW 12.9 km/h 24.1 km/h 51% 0 mm
13:00 19.7 °C 9.6 °C 1009.7 hPa South 11.3 km/h 25.7 km/h 52% 0 mm
13:05 20 °C 9.3 °C 1009.7 hPa SSW 14.5 km/h 25.7 km/h 50% 0 mm
13:10 19.5 °C 9.4 °C 1009.7 hPa SSW 11.3 km/h 33.8 km/h 52% 0 mm
13:15 19.1 °C 9.3 °C 1010 hPa SSW 12.9 km/h 33.8 km/h 53% 0 mm
13:20 19.1 °C 9.3 °C 1010 hPa SW 11.3 km/h 30.6 km/h 53% 0 mm
13:25 19.2 °C 9.4 °C 1009.7 hPa South 14.5 km/h 33.8 km/h 53% 0 mm
13:30 19.8 °C 9.3 °C 1009.7 hPa WSW 9.7 km/h 33.8 km/h 51% 0 mm
13:35 20.1 °C 9.6 °C 1009.7 hPa SW 12.9 km/h 29 km/h 51% 0 mm
13:40 19.7 °C 9.3 °C 1009.7 hPa SW 12.9 km/h 29 km/h 51% 0 mm
13:55 20.3 °C 9.9 °C 1009.7 hPa SW 9.7 km/h 29 km/h 51% 0 mm
14:00 20.7 °C 9.6 °C 1009.7 hPa SW 12.9 km/h 22.5 km/h 49% 0 mm
14:05 20.9 °C 9.8 °C 1009.7 hPa WSW 9.7 km/h 22.5 km/h 49% 0 mm
14:10 21 °C 9.9 °C 1010 hPa South 11.3 km/h 20.9 km/h 49% 0 mm
14:15 20.5 °C 9.7 °C 1009.7 hPa SSW 14.5 km/h 27.4 km/h 50% 0 mm
14:20 20.7 °C 10.2 °C 1009.7 hPa SSW 16.1 km/h 27.4 km/h 51% 0 mm
14:25 21.6 °C 10.7 °C 1009.7 hPa SW 11.3 km/h 27.4 km/h 50% 0 mm
14:35 20.9 °C 10.1 °C 1009.7 hPa SSW 9.7 km/h 22.5 km/h 50% 0 mm
14:40 21.2 °C 10.4 °C 1009.7 hPa SW 8 km/h 24.1 km/h 50% 0 mm
14:55 21.2 °C 10.1 °C 1009.7 hPa SW 14.5 km/h 27.4 km/h 49% 0 mm
15:00 21.2 °C 10.3 °C 1009.7 hPa SW 3.2 km/h 27.4 km/h 50% 0 mm
15:05 20.9 °C 9.8 °C 1009.7 hPa SSW 14.5 km/h 27.4 km/h 49% 0 mm
15:10 20.5 °C 9.7 °C 1009.7 hPa SSW 4.8 km/h 27.4 km/h 50% 0 mm
15:15 20.8 °C 10.3 °C 1009.7 hPa West 4.8 km/h 25.7 km/h 51% 0 mm
15:20 21.3 °C 10.2 °C 1009.4 hPa WSW 9.7 km/h 20.9 km/h 49% 0 mm
15:25 21.3 °C 10.5 °C 1009.7 hPa WSW 11.3 km/h 20.9 km/h 50% 0 mm
15:35 21.4 °C 10.6 °C 1009.7 hPa WSW 9.7 km/h 20.9 km/h 50% 0 mm
15:40 21.5 °C 10.7 °C 1009.7 hPa WNW 9.7 km/h 20.9 km/h 50% 0 mm
15:50 21.4 °C 10.2 °C 1009.7 hPa WSW 9.7 km/h 20.9 km/h 49% 0 mm
16:00 20.8 °C 10.6 °C 1009.4 hPa WSW 11.3 km/h 19.3 km/h 52% 0 mm
16:05 20.6 °C 10.4 °C 1009.7 hPa WSW 8 km/h 19.3 km/h 52% 0 mm
16:10 20.5 °C 10.3 °C 1009.7 hPa SW 8 km/h 17.7 km/h 52% 0 mm
16:15 20.4 °C 10.2 °C 1009.7 hPa WSW 12.9 km/h 22.5 km/h 52% 0 mm
16:20 20.1 °C 10.2 °C 1009.7 hPa West 14.5 km/h 22.5 km/h 53% 0 mm
16:25 19.9 °C 10.3 °C 1009.7 hPa WSW 11.3 km/h 24.1 km/h 54% 0 mm
16:35 19.7 °C 10.7 °C 1009.7 hPa SW 9.7 km/h 20.9 km/h 56% 0 mm
16:40 19.6 °C 10.6 °C 1009.7 hPa SW 12.9 km/h 22.5 km/h 56% 0 mm
16:50 19.1 °C 10.4 °C 1009.7 hPa SW 11.3 km/h 20.9 km/h 57% 0 mm
17:00 18.9 °C 10.5 °C 1009.7 hPa SW 9.7 km/h 17.7 km/h 58% 0 mm
17:05 19 °C 10.8 °C 1009.7 hPa WSW 4.8 km/h 14.5 km/h 59% 0 mm
17:15 19.5 °C 10.8 °C 1009.7 hPa West 3.2 km/h 16.1 km/h 57% 0 mm
17:20 19.7 °C 10.9 °C 1010 hPa SSW 6.4 km/h 11.3 km/h 57% 0 mm
17:25 19.6 °C 11.1 °C 1010 hPa SSW 8 km/h 14.5 km/h 58% 0 mm
17:35 19.5 °C 11 °C 1010 hPa SW 4.8 km/h 14.5 km/h 58% 0 mm
17:45 19.4 °C 10.9 °C 1010 hPa WSW 1.6 km/h 16.1 km/h 58% 0 mm
17:50 19.3 °C 11.1 °C 1010 hPa WSW 3.2 km/h 12.9 km/h 59% 0 mm
17:55 19.3 °C 10.8 °C 1010 hPa WSW 3.2 km/h 14.5 km/h 58% 0 mm
18:00 19.2 °C 11 °C 1010 hPa West 4.8 km/h 14.5 km/h 59% 0 mm
18:10 19.3 °C 10.9 °C 1010.4 hPa West 6.4 km/h 12.9 km/h 58% 0 mm
18:15 19.3 °C 11.1 °C 1010.4 hPa WSW 3.2 km/h 12.9 km/h 59% 0 mm
18:20 19.2 °C 11 °C 1010.4 hPa West 4.8 km/h 14.5 km/h 59% 0 mm
18:25 19.2 °C 10.9 °C 1010.4 hPa West 6.4 km/h 14.5 km/h 59% 0 mm
18:35 18.9 °C 11 °C 1010.4 hPa WSW 1.6 km/h 12.9 km/h 60% 0 mm
18:40 18.9 °C 10.9 °C 1010.4 hPa Calm   9.7 km/h 60% 0 mm
18:50 18.7 °C 10.8 °C 1010.7 hPa SW 4.8 km/h 11.3 km/h 60% 0 mm
18:55 18.6 °C 10.9 °C 1010.7 hPa Calm   11.3 km/h 61% 0 mm
19:00 18.4 °C 11.1 °C 1010.7 hPa Calm   6.4 km/h 62% 0 mm
19:05 18.3 °C 10.9 °C 1010.7 hPa WSW 1.6 km/h 9.7 km/h 62% 0 mm
19:10 18.3 °C 10.9 °C 1010.7 hPa Calm   9.7 km/h 62% 0 mm
19:20 18.1 °C 10.9 °C 1011.1 hPa Calm   6.4 km/h 63% 0 mm
19:25 18 °C 11.1 °C 1011.1 hPa Calm   1.6 km/h 64% 0 mm
19:30 17.8 °C 10.9 °C 1011.1 hPa Calm     64% 0 mm
19:35 17.7 °C 11.1 °C 1011.1 hPa Calm   4.8 km/h 65% 0 mm
19:40 17.7 °C 11 °C 1011.4 hPa WSW 1.6 km/h 11.3 km/h 65% 0 mm
19:45 17.7 °C 10.8 °C 1011.1 hPa WSW 1.6 km/h 11.3 km/h 64% 0 mm
19:55 17.7 °C 10.8 °C 1011.4 hPa Calm   1.6 km/h 64% 0 mm
20:00 17.7 °C 11 °C 1011.4 hPa Calm   1.6 km/h 65% 0 mm
20:05 17.7 °C 11 °C 1011.4 hPa Calm   4.8 km/h 65% 0 mm
20:15 17.5 °C 10.8 °C 1011.4 hPa Calm     65% 0 mm
20:20 17.4 °C 11.1 °C 1011.7 hPa Calm     66% 0 mm
20:25 17.4 °C 11 °C 1011.4 hPa Calm     66% 0 mm
20:30 17.3 °C 10.9 °C 1011.7 hPa Calm     66% 0 mm
20:35 17.3 °C 11.1 °C 1011.7 hPa Calm     67% 0 mm
20:40 17.2 °C 11.1 °C 1011.7 hPa SSW 4.8 km/h 6.4 km/h 67% 0 mm
20:45 17.2 °C 11 °C 1011.7 hPa SSW 3.2 km/h 11.3 km/h 67% 0 mm
20:50 17.1 °C 10.9 °C 1011.7 hPa SSW 1.6 km/h 11.3 km/h 67% 0 mm
20:55 17.1 °C 10.9 °C 1012.1 hPa SSW 4.8 km/h 12.9 km/h 67% 0 mm
21:00 17.1 °C 11.2 °C 1011.7 hPa SSW 3.2 km/h 12.9 km/h 68% 0 mm
21:05 17.1 °C 11.1 °C 1011.7 hPa Calm   6.4 km/h 68% 0 mm
21:15 16.9 °C 11 °C 1011.7 hPa South 1.6 km/h 8 km/h 68% 0 mm
21:20 16.9 °C 11.2 °C 1011.7 hPa SSW 3.2 km/h 9.7 km/h 69% 0 mm
21:25 16.9 °C 11.2 °C 1011.7 hPa SW 4.8 km/h 9.7 km/h 69% 0 mm
21:35 16.8 °C 11.1 °C 1012.1 hPa Calm   8 km/h 69% 0 mm
21:40 16.8 °C 11.1 °C 1012.1 hPa SSW 1.6 km/h 9.7 km/h 69% 0 mm
21:45 16.7 °C 11.2 °C 1012.1 hPa SSW 1.6 km/h 9.7 km/h 70% 0 mm
21:55 16.7 °C 11.2 °C 1012.1 hPa SSW 4.8 km/h 11.3 km/h 70% 0 mm
22:05 16.6 °C 11.1 °C 1012.1 hPa SSW 1.6 km/h 8 km/h 70% 0 mm
22:10 16.6 °C 11.3 °C 1012.1 hPa Calm   8 km/h 71% 0 mm
22:20 16.5 °C 11.2 °C 1012.1 hPa SW 1.6 km/h 8 km/h 71% 0 mm
22:25 16.4 °C 11.2 °C 1012.1 hPa SSW 3.2 km/h 9.7 km/h 71% 0 mm
22:35 16.3 °C 11.3 °C 1012.1 hPa Calm   8 km/h 72% 0 mm
22:50 16.3 °C 11.5 °C 1012.1 hPa SSW 3.2 km/h 14.5 km/h 73% 0 mm
22:55 16.2 °C 11.6 °C 1012.1 hPa SSW 3.2 km/h 12.9 km/h 74% 0 mm
23:00 16.1 °C 11.7 °C 1012.1 hPa SW 3.2 km/h 12.9 km/h 75% 0 mm
23:05 15.9 °C 11.5 °C 1012.1 hPa SSW 1.6 km/h 12.9 km/h 75% 0 mm
23:10 15.9 °C 11.4 °C 1012.1 hPa SSW 3.2 km/h 12.9 km/h 75% 0 mm
23:15 15.9 °C 11.4 °C 1012.1 hPa Calm   11.3 km/h 75% 0 mm
23:25 15.9 °C 11.4 °C 1011.7 hPa SSW 3.2 km/h 9.7 km/h 75% 0 mm
23:30 15.9 °C 11.5 °C 1011.7 hPa SSW 1.6 km/h 9.7 km/h 75% 0 mm
23:35 16 °C 11.6 °C 1011.7 hPa South 1.6 km/h 9.7 km/h 75% 0 mm
23:40 16 °C 12 °C 1011.7 hPa Calm   9.7 km/h 77% 0 mm
23:50 15.9 °C 11.5 °C 1011.7 hPa Calm   11.3 km/h 75% 0 mm
23:55 15.9 °C 11.5 °C 1011.7 hPa Calm   11.3 km/h 75% 0 mm
Westford Weather
Compliments of Weather Underground

 
 
Current Radar Loop:

Copyright © WestfordWeather.net 2007-2014. All rights reserved.